CES6686 ZGGG-ZUCK
Flight info
| Callsign | CES6686 |
|---|---|
| Flight time | 1h 43m |
| Altitude | FL341 |
| Route | AGVIL9 AGVIL W24 OSNOV G586 QP B330 SJG G586 LAGEX W182 UGUGU V50 VILUS SEGDA SEGDE1 |
| Aircraft | A21N/M-SDE2E3FGHIRWXY/LB1 |
Departure
| Time | 2026-05-08 06:04 |
|---|---|
| Airport | Guangzhou Baiyun International Airport (ZGGG) |
Arrival
| Time | 2026-05-08 07:47 |
|---|---|
| Airport | Chongqing Jiangbei International Airport (ZUCK) |
| Time | Latitude | Longitude | Altitude | Speed | Heading |
|---|---|---|---|---|---|
| 2026-05-08 05:25 | 23.38949 | 113.29333 | 64 ft | 0 kts | 1° |
| 2026-05-08 05:51 | 23.38941 | 113.29333 | 57 ft | 4 kts | 360° |
| 2026-05-08 05:52 | 23.38914 | 113.29335 | 59 ft | 4 kts | 351° |
| 2026-05-08 05:52 | 23.38889 | 113.29342 | 57 ft | 5 kts | 335° |
| 2026-05-08 05:52 | 23.38869 | 113.29357 | 57 ft | 5 kts | 293° |
| 2026-05-08 05:52 | 23.38867 | 113.29366 | 56 ft | 4 kts | 271° |
| 2026-05-08 05:59 | 23.38867 | 113.29355 | 59 ft | 3 kts | 271° |
| 2026-05-08 05:59 | 23.38867 | 113.29322 | 64 ft | 6 kts | 270° |
| 2026-05-08 05:59 | 23.38867 | 113.29268 | 64 ft | 9 kts | 270° |
| 2026-05-08 05:59 | 23.38868 | 113.29191 | 61 ft | 12 kts | 270° |
| 2026-05-08 06:00 | 23.38871 | 113.29093 | 64 ft | 14 kts | 277° |
| 2026-05-08 06:00 | 23.38908 | 113.28985 | 62 ft | 17 kts | 326° |
| 2026-05-08 06:00 | 23.39030 | 113.28998 | 56 ft | 19 kts | 15° |
| 2026-05-08 06:00 | 23.39225 | 113.29048 | 58 ft | 48 kts | 13° |
| 2026-05-08 06:01 | 23.39657 | 113.29166 | 57 ft | 67 kts | 14° |
| 2026-05-08 06:01 | 23.40075 | 113.29278 | 58 ft | 56 kts | 14° |
| 2026-05-08 06:01 | 23.40405 | 113.29367 | 61 ft | 31 kts | 14° |
| 2026-05-08 06:01 | 23.40555 | 113.29403 | 61 ft | 13 kts | 351° |
| 2026-05-08 06:02 | 23.40605 | 113.29320 | 64 ft | 14 kts | 283° |
| 2026-05-08 06:02 | 23.40629 | 113.29209 | 65 ft | 16 kts | 283° |
| 2026-05-08 06:02 | 23.40579 | 113.29131 | 62 ft | 17 kts | 234° |
| 2026-05-08 06:02 | 23.40563 | 113.29117 | 65 ft | 0 kts | 169° |
| 2026-05-08 06:03 | 23.40533 | 113.29118 | 62 ft | 15 kts | 189° |
| 2026-05-08 06:03 | 23.40195 | 113.29029 | 59 ft | 86 kts | 195° |
| 2026-05-08 06:03 | 23.39398 | 113.28814 | 58 ft | 148 kts | 193° |
| 2026-05-08 06:03 | 23.38258 | 113.28507 | 230 ft | 180 kts | 193° |
| 2026-05-08 06:04 | 23.37035 | 113.28155 | 793 ft | 184 kts | 196° |
| 2026-05-08 06:04 | 23.35812 | 113.27743 | 1390 ft | 185 kts | 198° |
| 2026-05-08 06:04 | 23.34574 | 113.27322 | 1957 ft | 189 kts | 198° |
| 2026-05-08 06:04 | 23.33441 | 113.26610 | 2508 ft | 192 kts | 231° |
| 2026-05-08 06:05 | 23.32777 | 113.25376 | 3231 ft | 190 kts | 244° |
| 2026-05-08 06:05 | 23.32162 | 113.24045 | 3744 ft | 207 kts | 242° |
| 2026-05-08 06:05 | 23.31253 | 113.22782 | 4278 ft | 221 kts | 219° |
| 2026-05-08 06:05 | 23.29844 | 113.22072 | 4863 ft | 232 kts | 192° |
| 2026-05-08 06:06 | 23.28199 | 113.21711 | 5334 ft | 251 kts | 191° |
| 2026-05-08 06:06 | 23.26460 | 113.21351 | 6045 ft | 257 kts | 192° |
| 2026-05-08 06:06 | 23.24702 | 113.20979 | 6827 ft | 258 kts | 193° |
| 2026-05-08 06:06 | 23.22938 | 113.20602 | 7591 ft | 260 kts | 193° |
| 2026-05-08 06:07 | 23.21165 | 113.20218 | 8321 ft | 262 kts | 193° |
| 2026-05-08 06:07 | 23.19368 | 113.19825 | 9042 ft | 265 kts | 193° |
| 2026-05-08 06:07 | 23.17556 | 113.19428 | 9776 ft | 269 kts | 193° |
| 2026-05-08 06:07 | 23.15731 | 113.18980 | 10426 ft | 270 kts | 200° |
| 2026-05-08 06:08 | 23.14094 | 113.18021 | 11041 ft | 268 kts | 225° |
| 2026-05-08 06:08 | 23.13007 | 113.16411 | 11652 ft | 267 kts | 249° |
| 2026-05-08 06:08 | 23.12664 | 113.14444 | 12263 ft | 269 kts | 273° |
| 2026-05-08 06:08 | 23.12964 | 113.12436 | 12933 ft | 272 kts | 283° |
| 2026-05-08 06:09 | 23.13637 | 113.10514 | 13586 ft | 276 kts | 300° |
| 2026-05-08 06:09 | 23.14912 | 113.08946 | 14163 ft | 282 kts | 321° |
| 2026-05-08 06:09 | 23.16718 | 113.08016 | 14463 ft | 301 kts | 346° |
| 2026-05-08 06:09 | 23.18869 | 113.07851 | 14701 ft | 320 kts | 358° |
| 2026-05-08 06:10 | 23.21153 | 113.07924 | 14927 ft | 337 kts | 359° |
| 2026-05-08 06:10 | 23.23555 | 113.07982 | 15141 ft | 354 kts | 358° |
| 2026-05-08 06:10 | 23.26063 | 113.08009 | 15347 ft | 369 kts | 358° |
| 2026-05-08 06:10 | 23.28674 | 113.08015 | 15541 ft | 383 kts | 357° |
| 2026-05-08 06:11 | 23.31382 | 113.08009 | 15734 ft | 396 kts | 357° |
| 2026-05-08 06:11 | 23.34178 | 113.07998 | 15903 ft | 408 kts | 357° |
| 2026-05-08 06:11 | 23.37046 | 113.07987 | 16059 ft | 419 kts | 357° |
| 2026-05-08 06:11 | 23.39990 | 113.07979 | 16205 ft | 428 kts | 357° |
| 2026-05-08 06:12 | 23.42992 | 113.07972 | 16364 ft | 437 kts | 358° |
| 2026-05-08 06:12 | 23.46046 | 113.07967 | 16649 ft | 441 kts | 358° |
| 2026-05-08 06:12 | 23.49106 | 113.07962 | 16978 ft | 443 kts | 357° |
| 2026-05-08 06:12 | 23.52198 | 113.07954 | 17317 ft | 445 kts | 357° |
| 2026-05-08 06:13 | 23.55297 | 113.07931 | 17637 ft | 447 kts | 357° |
| 2026-05-08 06:13 | 23.58411 | 113.07903 | 17957 ft | 450 kts | 357° |
| 2026-05-08 06:13 | 23.61539 | 113.07867 | 18274 ft | 452 kts | 356° |
| 2026-05-08 06:13 | 23.64686 | 113.07827 | 18556 ft | 454 kts | 356° |
| 2026-05-08 06:14 | 23.67839 | 113.07736 | 18836 ft | 454 kts | 353° |
| 2026-05-08 06:14 | 23.70941 | 113.07175 | 19131 ft | 452 kts | 342° |
| 2026-05-08 06:14 | 23.73879 | 113.06011 | 19437 ft | 451 kts | 334° |
| 2026-05-08 06:14 | 23.76735 | 113.04603 | 19762 ft | 452 kts | 333° |
| 2026-05-08 06:15 | 23.79590 | 113.03167 | 20090 ft | 454 kts | 333° |
| 2026-05-08 06:15 | 23.82459 | 113.01731 | 20418 ft | 456 kts | 333° |
| 2026-05-08 06:15 | 23.85349 | 113.00297 | 20786 ft | 458 kts | 333° |
| 2026-05-08 06:15 | 23.88253 | 112.98864 | 21242 ft | 460 kts | 333° |
| 2026-05-08 06:16 | 23.91165 | 112.97428 | 21706 ft | 462 kts | 333° |
| 2026-05-08 06:16 | 23.94098 | 112.95982 | 22121 ft | 464 kts | 333° |
| 2026-05-08 06:16 | 23.97041 | 112.94528 | 22490 ft | 466 kts | 333° |
| 2026-05-08 06:16 | 23.99999 | 112.93064 | 22856 ft | 469 kts | 333° |
| 2026-05-08 06:17 | 24.05954 | 112.90131 | 23507 ft | 472 kts | 333° |
| 2026-05-08 06:17 | 24.08949 | 112.88651 | 23752 ft | 474 kts | 333° |
| 2026-05-08 06:17 | 24.11959 | 112.87163 | 23982 ft | 476 kts | 333° |
| 2026-05-08 06:18 | 24.14982 | 112.85702 | 24190 ft | 478 kts | 335° |
| 2026-05-08 06:18 | 24.18147 | 112.84546 | 24385 ft | 481 kts | 340° |
| 2026-05-08 06:18 | 24.21345 | 112.83477 | 24596 ft | 482 kts | 340° |
| 2026-05-08 06:18 | 24.24554 | 112.82418 | 24810 ft | 483 kts | 340° |
| 2026-05-08 06:19 | 24.27760 | 112.81356 | 25054 ft | 482 kts | 340° |
| 2026-05-08 06:19 | 24.30961 | 112.80292 | 25296 ft | 481 kts | 340° |
| 2026-05-08 06:19 | 24.34150 | 112.79228 | 25560 ft | 480 kts | 339° |
| 2026-05-08 06:19 | 24.37337 | 112.78165 | 25817 ft | 480 kts | 339° |
| 2026-05-08 06:20 | 24.40454 | 112.76907 | 26052 ft | 475 kts | 332° |
| 2026-05-08 06:20 | 24.43277 | 112.75103 | 26293 ft | 468 kts | 321° |
| 2026-05-08 06:20 | 24.45705 | 112.72770 | 26536 ft | 463 kts | 310° |
| 2026-05-08 06:20 | 24.47672 | 112.70012 | 26813 ft | 458 kts | 300° |
| 2026-05-08 06:21 | 24.49121 | 112.66919 | 27070 ft | 454 kts | 290° |
| 2026-05-08 06:21 | 24.50021 | 112.63620 | 27336 ft | 451 kts | 281° |
| 2026-05-08 06:21 | 24.50445 | 112.60228 | 27605 ft | 449 kts | 276° |
| 2026-05-08 06:21 | 24.50751 | 112.56820 | 27894 ft | 448 kts | 275° |
| 2026-05-08 06:22 | 24.51051 | 112.53435 | 28179 ft | 446 kts | 275° |
| 2026-05-08 06:22 | 24.51363 | 112.50055 | 28447 ft | 445 kts | 275° |
| 2026-05-08 06:22 | 24.51683 | 112.46689 | 28735 ft | 443 kts | 276° |
| 2026-05-08 06:22 | 24.52006 | 112.43337 | 29019 ft | 442 kts | 276° |
| 2026-05-08 06:23 | 24.52328 | 112.39993 | 29317 ft | 440 kts | 276° |
| 2026-05-08 06:23 | 24.52650 | 112.36666 | 29622 ft | 438 kts | 276° |
| 2026-05-08 06:23 | 24.52968 | 112.33354 | 29911 ft | 437 kts | 276° |
| 2026-05-08 06:23 | 24.53285 | 112.30048 | 30171 ft | 436 kts | 275° |
| 2026-05-08 06:24 | 24.53602 | 112.26740 | 30381 ft | 436 kts | 275° |
| 2026-05-08 06:24 | 24.53917 | 112.23439 | 30592 ft | 435 kts | 275° |
| 2026-05-08 06:24 | 24.54231 | 112.20145 | 30814 ft | 434 kts | 275° |
| 2026-05-08 06:24 | 24.54543 | 112.16857 | 31031 ft | 433 kts | 275° |
| 2026-05-08 06:25 | 24.54854 | 112.13579 | 31256 ft | 433 kts | 275° |
| 2026-05-08 06:25 | 24.55166 | 112.10295 | 31461 ft | 433 kts | 275° |
| 2026-05-08 06:25 | 24.55475 | 112.07024 | 31675 ft | 432 kts | 275° |
| 2026-05-08 06:25 | 24.55782 | 112.03749 | 31889 ft | 431 kts | 275° |
| 2026-05-08 06:26 | 24.56088 | 112.00486 | 32114 ft | 430 kts | 275° |
| 2026-05-08 06:26 | 24.56394 | 111.97229 | 32335 ft | 430 kts | 275° |
| 2026-05-08 06:26 | 24.56698 | 111.93976 | 32524 ft | 429 kts | 275° |
| 2026-05-08 06:26 | 24.57000 | 111.90724 | 32737 ft | 429 kts | 275° |
| 2026-05-08 06:27 | 24.57302 | 111.87471 | 32949 ft | 428 kts | 275° |
| 2026-05-08 06:27 | 24.57604 | 111.84229 | 33157 ft | 427 kts | 275° |
| 2026-05-08 06:27 | 24.57902 | 111.80991 | 33354 ft | 427 kts | 275° |
| 2026-05-08 06:27 | 24.58201 | 111.77762 | 33532 ft | 426 kts | 275° |
| 2026-05-08 06:28 | 24.58497 | 111.74534 | 33725 ft | 426 kts | 276° |
| 2026-05-08 06:28 | 24.58793 | 111.71308 | 33905 ft | 425 kts | 275° |
| 2026-05-08 06:28 | 24.59091 | 111.68080 | 34067 ft | 425 kts | 275° |
| 2026-05-08 06:28 | 24.59385 | 111.64864 | 34161 ft | 425 kts | 275° |
| 2026-05-08 06:29 | 24.59969 | 111.58434 | 34162 ft | 423 kts | 275° |
| 2026-05-08 06:29 | 24.60554 | 111.52009 | 34141 ft | 425 kts | 275° |
| 2026-05-08 06:30 | 24.61134 | 111.45577 | 34137 ft | 423 kts | 275° |
| 2026-05-08 06:30 | 24.61713 | 111.39141 | 34143 ft | 423 kts | 275° |
| 2026-05-08 06:31 | 24.62284 | 111.32712 | 34145 ft | 423 kts | 275° |
| 2026-05-08 06:31 | 24.62848 | 111.26283 | 34146 ft | 425 kts | 275° |
| 2026-05-08 06:32 | 24.63407 | 111.19833 | 34142 ft | 424 kts | 275° |
| 2026-05-08 06:32 | 24.63959 | 111.13392 | 34143 ft | 426 kts | 275° |
| 2026-05-08 06:33 | 24.64508 | 111.06953 | 34144 ft | 423 kts | 275° |
| 2026-05-08 06:33 | 24.65053 | 111.00528 | 34134 ft | 423 kts | 275° |
| 2026-05-08 06:34 | 24.65601 | 110.94102 | 34142 ft | 424 kts | 275° |
| 2026-05-08 06:34 | 24.66150 | 110.87654 | 34140 ft | 424 kts | 275° |
| 2026-05-08 06:35 | 24.66903 | 110.81247 | 34130 ft | 423 kts | 283° |
| 2026-05-08 06:35 | 24.69404 | 110.75396 | 34137 ft | 429 kts | 303° |
| 2026-05-08 06:36 | 24.73584 | 110.70635 | 34135 ft | 435 kts | 312° |
| 2026-05-08 06:36 | 24.77978 | 110.66085 | 34154 ft | 435 kts | 311° |
| 2026-05-08 06:37 | 24.82339 | 110.61493 | 34135 ft | 434 kts | 311° |
| 2026-05-08 06:37 | 24.86698 | 110.56919 | 34140 ft | 435 kts | 311° |
| 2026-05-08 06:38 | 24.91048 | 110.52338 | 34135 ft | 432 kts | 311° |
| 2026-05-08 06:38 | 24.95378 | 110.47751 | 34146 ft | 433 kts | 311° |
| 2026-05-08 06:39 | 24.99722 | 110.43159 | 34144 ft | 433 kts | 311° |
| 2026-05-08 06:39 | 25.04070 | 110.38559 | 34145 ft | 434 kts | 311° |
| 2026-05-08 06:40 | 25.08419 | 110.33965 | 34156 ft | 434 kts | 311° |
| 2026-05-08 06:40 | 25.12754 | 110.29359 | 34176 ft | 434 kts | 311° |
| 2026-05-08 06:41 | 25.17091 | 110.24774 | 34175 ft | 432 kts | 311° |
| 2026-05-08 06:41 | 25.21425 | 110.20188 | 34180 ft | 432 kts | 311° |
| 2026-05-08 06:42 | 25.25788 | 110.15627 | 34185 ft | 433 kts | 311° |
| 2026-05-08 06:42 | 25.30157 | 110.11070 | 34177 ft | 433 kts | 311° |
| 2026-05-08 06:43 | 25.34529 | 110.06486 | 34173 ft | 436 kts | 311° |
| 2026-05-08 06:43 | 25.38902 | 110.01902 | 34178 ft | 433 kts | 311° |
| 2026-05-08 06:44 | 25.43264 | 109.97317 | 34181 ft | 433 kts | 311° |
| 2026-05-08 06:44 | 25.47617 | 109.92738 | 34207 ft | 432 kts | 311° |
| 2026-05-08 06:45 | 25.51965 | 109.88159 | 34192 ft | 433 kts | 311° |
| 2026-05-08 06:45 | 25.56312 | 109.83575 | 34193 ft | 433 kts | 311° |
| 2026-05-08 06:46 | 25.60659 | 109.78991 | 34212 ft | 433 kts | 311° |
| 2026-05-08 06:46 | 25.64997 | 109.74405 | 34199 ft | 432 kts | 311° |
| 2026-05-08 06:47 | 25.69325 | 109.69809 | 34207 ft | 431 kts | 310° |
| 2026-05-08 06:47 | 25.73645 | 109.65216 | 34214 ft | 432 kts | 310° |
| 2026-05-08 06:48 | 25.78036 | 109.60673 | 34219 ft | 435 kts | 314° |
| 2026-05-08 06:48 | 25.82751 | 109.56462 | 34229 ft | 435 kts | 315° |
| 2026-05-08 06:49 | 25.87465 | 109.52293 | 34224 ft | 434 kts | 315° |
| 2026-05-08 06:49 | 25.92174 | 109.48110 | 34231 ft | 434 kts | 315° |
| 2026-05-08 06:50 | 25.96880 | 109.43912 | 34230 ft | 433 kts | 314° |
| 2026-05-08 06:50 | 26.01563 | 109.39739 | 34233 ft | 433 kts | 315° |
| 2026-05-08 06:51 | 26.06261 | 109.35551 | 34247 ft | 433 kts | 315° |
| 2026-05-08 06:51 | 26.10953 | 109.31366 | 34246 ft | 433 kts | 315° |
| 2026-05-08 06:52 | 26.15636 | 109.27175 | 34271 ft | 432 kts | 314° |
| 2026-05-08 06:52 | 26.20309 | 109.22995 | 34269 ft | 432 kts | 315° |
| 2026-05-08 06:53 | 26.24980 | 109.18808 | 34262 ft | 432 kts | 314° |
| 2026-05-08 06:53 | 26.29660 | 109.14614 | 34267 ft | 432 kts | 314° |
| 2026-05-08 06:54 | 26.34330 | 109.10411 | 34274 ft | 432 kts | 314° |
| 2026-05-08 06:54 | 26.38985 | 109.06204 | 34276 ft | 431 kts | 313° |
| 2026-05-08 06:55 | 26.42809 | 109.01263 | 34278 ft | 416 kts | 295° |
| 2026-05-08 06:55 | 26.44788 | 108.95292 | 34291 ft | 410 kts | 282° |
| 2026-05-08 06:56 | 26.46195 | 108.89142 | 34289 ft | 412 kts | 282° |
| 2026-05-08 06:56 | 26.47627 | 108.82979 | 34294 ft | 410 kts | 282° |
| 2026-05-08 06:57 | 26.49066 | 108.76841 | 34298 ft | 411 kts | 282° |
| 2026-05-08 06:57 | 26.50505 | 108.70691 | 34299 ft | 410 kts | 282° |
| 2026-05-08 06:58 | 26.51944 | 108.64532 | 34305 ft | 410 kts | 282° |
| 2026-05-08 06:58 | 26.53366 | 108.58405 | 34306 ft | 408 kts | 282° |
| 2026-05-08 06:59 | 26.54788 | 108.52295 | 34311 ft | 407 kts | 282° |
| 2026-05-08 06:59 | 26.56202 | 108.46186 | 34308 ft | 407 kts | 282° |
| 2026-05-08 07:00 | 26.58298 | 108.40306 | 34320 ft | 414 kts | 297° |
| 2026-05-08 07:00 | 26.62243 | 108.35519 | 34319 ft | 432 kts | 317° |
| 2026-05-08 07:01 | 26.67673 | 108.32417 | 34318 ft | 445 kts | 329° |
| 2026-05-08 07:01 | 26.73393 | 108.29783 | 34316 ft | 445 kts | 329° |
| 2026-05-08 07:02 | 26.79088 | 108.27105 | 34323 ft | 445 kts | 329° |
| 2026-05-08 07:02 | 26.84764 | 108.24402 | 34322 ft | 444 kts | 329° |
| 2026-05-08 07:03 | 26.90433 | 108.21698 | 34331 ft | 443 kts | 328° |
| 2026-05-08 07:03 | 26.96105 | 108.18997 | 34330 ft | 443 kts | 328° |
| 2026-05-08 07:04 | 27.01772 | 108.16291 | 34318 ft | 444 kts | 328° |
| 2026-05-08 07:04 | 27.07442 | 108.13582 | 34318 ft | 443 kts | 328° |
| 2026-05-08 07:05 | 27.13105 | 108.10872 | 34328 ft | 443 kts | 328° |
| 2026-05-08 07:05 | 27.18766 | 108.08167 | 34336 ft | 443 kts | 328° |
| 2026-05-08 07:06 | 27.24426 | 108.05451 | 34325 ft | 445 kts | 328° |
| 2026-05-08 07:06 | 27.30101 | 108.02732 | 34321 ft | 444 kts | 328° |
| 2026-05-08 07:07 | 27.35772 | 108.00014 | 34332 ft | 443 kts | 328° |
| 2026-05-08 07:07 | 27.41431 | 107.97292 | 34337 ft | 443 kts | 328° |
| 2026-05-08 07:08 | 27.47084 | 107.94562 | 34325 ft | 443 kts | 328° |
| 2026-05-08 07:08 | 27.52729 | 107.91837 | 34333 ft | 441 kts | 328° |
| 2026-05-08 07:09 | 27.58373 | 107.89115 | 34326 ft | 443 kts | 328° |
| 2026-05-08 07:09 | 27.64009 | 107.86399 | 34323 ft | 441 kts | 328° |
| 2026-05-08 07:10 | 27.69635 | 107.83676 | 34340 ft | 440 kts | 328° |
| 2026-05-08 07:10 | 27.75256 | 107.80958 | 34337 ft | 441 kts | 328° |
| 2026-05-08 07:11 | 27.80868 | 107.78230 | 34343 ft | 438 kts | 326° |
| 2026-05-08 07:11 | 27.83488 | 107.76593 | 34331 ft | 427 kts | 317° |
| 2026-05-08 07:11 | 27.85830 | 107.74572 | 34334 ft | 422 kts | 313° |
| 2026-05-08 07:12 | 27.90347 | 107.70364 | 34334 ft | 422 kts | 313° |
| 2026-05-08 07:12 | 27.94884 | 107.66156 | 34334 ft | 423 kts | 313° |
| 2026-05-08 07:13 | 27.99421 | 107.61962 | 34335 ft | 423 kts | 313° |
| 2026-05-08 07:13 | 28.03978 | 107.57761 | 34336 ft | 420 kts | 313° |
| 2026-05-08 07:14 | 28.06208 | 107.55698 | 33755 ft | 415 kts | 313° |
| 2026-05-08 07:14 | 28.08449 | 107.53610 | 32752 ft | 419 kts | 313° |
| 2026-05-08 07:14 | 28.10694 | 107.51519 | 31973 ft | 421 kts | 313° |
| 2026-05-08 07:14 | 28.12958 | 107.49415 | 31260 ft | 421 kts | 314° |
| 2026-05-08 07:15 | 28.15219 | 107.47317 | 30525 ft | 420 kts | 314° |
| 2026-05-08 07:15 | 28.17477 | 107.45224 | 29669 ft | 421 kts | 314° |
| 2026-05-08 07:15 | 28.19738 | 107.43124 | 28801 ft | 423 kts | 315° |
| 2026-05-08 07:15 | 28.22042 | 107.41049 | 27982 ft | 425 kts | 315° |
| 2026-05-08 07:16 | 28.24367 | 107.38978 | 27172 ft | 427 kts | 316° |
| 2026-05-08 07:16 | 28.26694 | 107.36899 | 26351 ft | 428 kts | 316° |
| 2026-05-08 07:16 | 28.29035 | 107.34801 | 25542 ft | 432 kts | 316° |
| 2026-05-08 07:16 | 28.31407 | 107.32677 | 24892 ft | 438 kts | 316° |
| 2026-05-08 07:17 | 28.33801 | 107.30527 | 24377 ft | 440 kts | 316° |
| 2026-05-08 07:17 | 28.36093 | 107.28303 | 23820 ft | 436 kts | 312° |
| 2026-05-08 07:17 | 28.38279 | 107.25926 | 23125 ft | 432 kts | 312° |
| 2026-05-08 07:17 | 28.40425 | 107.23568 | 22512 ft | 429 kts | 312° |
| 2026-05-08 07:18 | 28.42549 | 107.21229 | 22119 ft | 424 kts | 312° |
| 2026-05-08 07:18 | 28.44676 | 107.18881 | 21800 ft | 428 kts | 312° |
| 2026-05-08 07:18 | 28.46797 | 107.16542 | 21388 ft | 425 kts | 312° |
| 2026-05-08 07:18 | 28.48908 | 107.14221 | 20863 ft | 421 kts | 312° |
| 2026-05-08 07:19 | 28.51005 | 107.11917 | 20309 ft | 418 kts | 313° |
| 2026-05-08 07:19 | 28.53083 | 107.09625 | 19751 ft | 415 kts | 313° |
| 2026-05-08 07:19 | 28.55138 | 107.07358 | 19228 ft | 411 kts | 313° |
| 2026-05-08 07:19 | 28.57175 | 107.05103 | 18691 ft | 408 kts | 313° |
| 2026-05-08 07:20 | 28.59189 | 107.02879 | 17991 ft | 405 kts | 313° |
| 2026-05-08 07:20 | 28.61204 | 107.00647 | 17400 ft | 402 kts | 313° |
| 2026-05-08 07:20 | 28.63193 | 106.98450 | 16879 ft | 398 kts | 313° |
| 2026-05-08 07:20 | 28.65016 | 106.96122 | 16395 ft | 392 kts | 304° |
| 2026-05-08 07:21 | 28.66368 | 106.93473 | 15927 ft | 386 kts | 292° |
| 2026-05-08 07:21 | 28.66970 | 106.91567 | 15617 ft | 383 kts | 285° |
| 2026-05-08 07:21 | 28.67729 | 106.88037 | 15091 ft | 378 kts | 282° |
| 2026-05-08 07:21 | 28.68399 | 106.85162 | 14704 ft | 376 kts | 288° |
| 2026-05-08 07:22 | 28.69520 | 106.82483 | 14337 ft | 377 kts | 300° |
| 2026-05-08 07:22 | 28.71155 | 106.80163 | 13968 ft | 379 kts | 313° |
| 2026-05-08 07:22 | 28.73191 | 106.78254 | 13501 ft | 379 kts | 320° |
| 2026-05-08 07:22 | 28.75291 | 106.76457 | 12967 ft | 378 kts | 320° |
| 2026-05-08 07:23 | 28.77381 | 106.74668 | 12489 ft | 376 kts | 320° |
| 2026-05-08 07:23 | 28.79445 | 106.72896 | 12099 ft | 367 kts | 321° |
| 2026-05-08 07:23 | 28.81649 | 106.71528 | 11847 ft | 360 kts | 338° |
| 2026-05-08 07:23 | 28.84082 | 106.71096 | 11639 ft | 353 kts | 358° |
| 2026-05-08 07:24 | 28.86487 | 106.71389 | 11440 ft | 341 kts | 5° |
| 2026-05-08 07:24 | 28.88776 | 106.71776 | 11095 ft | 327 kts | 5° |
| 2026-05-08 07:24 | 28.90980 | 106.72153 | 10773 ft | 314 kts | 5° |
| 2026-05-08 07:24 | 28.93095 | 106.72492 | 10446 ft | 303 kts | 5° |
| 2026-05-08 07:25 | 28.95155 | 106.72814 | 10143 ft | 295 kts | 5° |
| 2026-05-08 07:25 | 28.97168 | 106.73124 | 9759 ft | 293 kts | 6° |
| 2026-05-08 07:25 | 29.01066 | 106.73745 | 9180 ft | 283 kts | 9° |
| 2026-05-08 07:26 | 29.02833 | 106.74615 | 8999 ft | 277 kts | 38° |
| 2026-05-08 07:26 | 29.03981 | 106.76310 | 8837 ft | 269 kts | 65° |
| 2026-05-08 07:26 | 29.04635 | 106.78291 | 8719 ft | 268 kts | 71° |
| 2026-05-08 07:26 | 29.05234 | 106.80318 | 8582 ft | 270 kts | 71° |
| 2026-05-08 07:27 | 29.05847 | 106.82340 | 8469 ft | 272 kts | 70° |
| 2026-05-08 07:27 | 29.06629 | 106.84305 | 8345 ft | 273 kts | 57° |
| 2026-05-08 07:27 | 29.07700 | 106.86080 | 8229 ft | 272 kts | 53° |
| 2026-05-08 07:27 | 29.08812 | 106.87820 | 8109 ft | 271 kts | 53° |
| 2026-05-08 07:28 | 29.09916 | 106.89557 | 8028 ft | 270 kts | 53° |
| 2026-05-08 07:28 | 29.11011 | 106.91291 | 7953 ft | 270 kts | 52° |
| 2026-05-08 07:28 | 29.12286 | 106.92838 | 7880 ft | 268 kts | 39° |
| 2026-05-08 07:28 | 29.13735 | 106.94172 | 7813 ft | 268 kts | 37° |
| 2026-05-08 07:29 | 29.15200 | 106.95489 | 7750 ft | 268 kts | 37° |
| 2026-05-08 07:29 | 29.16662 | 106.96809 | 7692 ft | 269 kts | 37° |
| 2026-05-08 07:29 | 29.18132 | 106.98115 | 7622 ft | 268 kts | 34° |
| 2026-05-08 07:29 | 29.19757 | 106.99122 | 7547 ft | 266 kts | 22° |
| 2026-05-08 07:30 | 29.21461 | 106.99942 | 7477 ft | 267 kts | 21° |
| 2026-05-08 07:30 | 29.23162 | 107.00753 | 7417 ft | 266 kts | 21° |
| 2026-05-08 07:30 | 29.24863 | 107.01570 | 7344 ft | 265 kts | 21° |
| 2026-05-08 07:30 | 29.26546 | 107.02360 | 7279 ft | 264 kts | 17° |
| 2026-05-08 07:31 | 29.28350 | 107.02798 | 7210 ft | 263 kts | 6° |
| 2026-05-08 07:31 | 29.30161 | 107.03060 | 7119 ft | 263 kts | 5° |
| 2026-05-08 07:31 | 29.31977 | 107.03319 | 7038 ft | 263 kts | 5° |
| 2026-05-08 07:31 | 29.33785 | 107.03583 | 6965 ft | 263 kts | 5° |
| 2026-05-08 07:32 | 29.35598 | 107.03817 | 6890 ft | 262 kts | 360° |
| 2026-05-08 07:32 | 29.37405 | 107.03665 | 6824 ft | 260 kts | 350° |
| 2026-05-08 07:32 | 29.39187 | 107.03370 | 6762 ft | 260 kts | 349° |
| 2026-05-08 07:32 | 29.40969 | 107.03039 | 6697 ft | 259 kts | 344° |
| 2026-05-08 07:33 | 29.42573 | 107.02183 | 6630 ft | 254 kts | 317° |
| 2026-05-08 07:33 | 29.43591 | 107.00602 | 6559 ft | 248 kts | 289° |
| 2026-05-08 07:33 | 29.43835 | 106.98673 | 6491 ft | 245 kts | 262° |
| 2026-05-08 07:33 | 29.43440 | 106.96781 | 6452 ft | 245 kts | 251° |
| 2026-05-08 07:34 | 29.42921 | 106.94926 | 6387 ft | 244 kts | 251° |
| 2026-05-08 07:34 | 29.42418 | 106.93074 | 6322 ft | 244 kts | 252° |
| 2026-05-08 07:34 | 29.41928 | 106.91212 | 6263 ft | 244 kts | 252° |
| 2026-05-08 07:34 | 29.41445 | 106.89344 | 6196 ft | 245 kts | 252° |
| 2026-05-08 07:35 | 29.40967 | 106.87464 | 6114 ft | 245 kts | 252° |
| 2026-05-08 07:35 | 29.40499 | 106.85594 | 6060 ft | 245 kts | 252° |
| 2026-05-08 07:35 | 29.40035 | 106.83720 | 5996 ft | 245 kts | 252° |
| 2026-05-08 07:35 | 29.39571 | 106.81844 | 5934 ft | 245 kts | 252° |
| 2026-05-08 07:36 | 29.39108 | 106.79969 | 5891 ft | 244 kts | 252° |
| 2026-05-08 07:36 | 29.38646 | 106.78101 | 5884 ft | 244 kts | 252° |
| 2026-05-08 07:36 | 29.38183 | 106.76231 | 5892 ft | 244 kts | 252° |
| 2026-05-08 07:36 | 29.37736 | 106.74431 | 5875 ft | 225 kts | 252° |
| 2026-05-08 07:37 | 29.37325 | 106.72775 | 5874 ft | 213 kts | 252° |
| 2026-05-08 07:37 | 29.36919 | 106.71146 | 5889 ft | 212 kts | 252° |
| 2026-05-08 07:37 | 29.36515 | 106.69526 | 5897 ft | 211 kts | 252° |
| 2026-05-08 07:37 | 29.36116 | 106.67917 | 5884 ft | 210 kts | 252° |
| 2026-05-08 07:38 | 29.35754 | 106.66289 | 5890 ft | 213 kts | 260° |
| 2026-05-08 07:38 | 29.35856 | 106.64601 | 5794 ft | 216 kts | 282° |
| 2026-05-08 07:38 | 29.36299 | 106.62969 | 5510 ft | 210 kts | 284° |
| 2026-05-08 07:38 | 29.36737 | 106.61440 | 5372 ft | 196 kts | 285° |
| 2026-05-08 07:39 | 29.37147 | 106.59962 | 5059 ft | 195 kts | 284° |
| 2026-05-08 07:39 | 29.37550 | 106.58476 | 4815 ft | 198 kts | 284° |
| 2026-05-08 07:39 | 29.37952 | 106.56964 | 4659 ft | 198 kts | 284° |
| 2026-05-08 07:39 | 29.38353 | 106.55460 | 4561 ft | 198 kts | 284° |
| 2026-05-08 07:40 | 29.38801 | 106.53972 | 4580 ft | 200 kts | 295° |
| 2026-05-08 07:40 | 29.39828 | 106.52922 | 4493 ft | 204 kts | 339° |
| 2026-05-08 07:40 | 29.41188 | 106.52891 | 4413 ft | 203 kts | 15° |
| 2026-05-08 07:40 | 29.42531 | 106.53451 | 4353 ft | 201 kts | 25° |
| 2026-05-08 07:41 | 29.43817 | 106.54075 | 4281 ft | 200 kts | 24° |
| 2026-05-08 07:41 | 29.45112 | 106.54660 | 4213 ft | 201 kts | 22° |
| 2026-05-08 07:41 | 29.46422 | 106.55199 | 4154 ft | 200 kts | 21° |
| 2026-05-08 07:41 | 29.47734 | 106.55718 | 4090 ft | 198 kts | 22° |
| 2026-05-08 07:42 | 29.49044 | 106.56215 | 4013 ft | 198 kts | 19° |
| 2026-05-08 07:42 | 29.50350 | 106.56675 | 3952 ft | 197 kts | 19° |
| 2026-05-08 07:42 | 29.51659 | 106.57129 | 3912 ft | 197 kts | 19° |
| 2026-05-08 07:42 | 29.52982 | 106.57587 | 3911 ft | 199 kts | 19° |
| 2026-05-08 07:43 | 29.54305 | 106.58045 | 3925 ft | 199 kts | 19° |
| 2026-05-08 07:43 | 29.55620 | 106.58499 | 3926 ft | 190 kts | 19° |
| 2026-05-08 07:43 | 29.56826 | 106.58917 | 3936 ft | 178 kts | 19° |
| 2026-05-08 07:43 | 29.58007 | 106.59326 | 3903 ft | 178 kts | 20° |
| 2026-05-08 07:44 | 29.59177 | 106.59731 | 3726 ft | 174 kts | 19° |
| 2026-05-08 07:44 | 29.60333 | 106.60131 | 3504 ft | 173 kts | 20° |
| 2026-05-08 07:44 | 29.61475 | 106.60527 | 3260 ft | 171 kts | 20° |
| 2026-05-08 07:44 | 29.62605 | 106.60918 | 3039 ft | 169 kts | 20° |
| 2026-05-08 07:45 | 29.63716 | 106.61303 | 2804 ft | 166 kts | 20° |
| 2026-05-08 07:45 | 29.64771 | 106.61667 | 2579 ft | 145 kts | 19° |
| 2026-05-08 07:45 | 29.65715 | 106.61995 | 2406 ft | 142 kts | 19° |
| 2026-05-08 07:45 | 29.66645 | 106.62318 | 2226 ft | 138 kts | 19° |
| 2026-05-08 07:46 | 29.67556 | 106.62633 | 2014 ft | 136 kts | 17° |
| 2026-05-08 07:46 | 29.68462 | 106.62948 | 1823 ft | 136 kts | 17° |
| 2026-05-08 07:46 | 29.69361 | 106.63260 | 1636 ft | 133 kts | 16° |
| 2026-05-08 07:46 | 29.70245 | 106.63567 | 1476 ft | 134 kts | 17° |
| 2026-05-08 07:47 | 29.71137 | 106.63879 | 1371 ft | 128 kts | 17° |
| 2026-05-08 07:47 | 29.71784 | 106.64103 | 1366 ft | 56 kts | 18° |
| 2026-05-08 07:47 | 29.72051 | 106.64252 | 1365 ft | 42 kts | 43° |
| 2026-05-08 07:47 | 29.72139 | 106.64357 | 1363 ft | 11 kts | 60° |
| 2026-05-08 07:48 | 29.72118 | 106.64423 | 1362 ft | 12 kts | 191° |
| 2026-05-08 07:48 | 29.72032 | 106.64400 | 1362 ft | 14 kts | 195° |
| 2026-05-08 07:48 | 29.71937 | 106.64371 | 1362 ft | 15 kts | 195° |
| 2026-05-08 07:48 | 29.71832 | 106.64339 | 1362 ft | 16 kts | 195° |
| 2026-05-08 07:49 | 29.71720 | 106.64292 | 1363 ft | 18 kts | 201° |
| 2026-05-08 07:49 | 29.71598 | 106.64247 | 1361 ft | 19 kts | 195° |
| 2026-05-08 07:49 | 29.71467 | 106.64201 | 1362 ft | 20 kts | 197° |
| 2026-05-08 07:49 | 29.71455 | 106.64315 | 1361 ft | 21 kts | 91° |
| 2026-05-08 07:50 | 29.71420 | 106.64470 | 1362 ft | 3 kts | 108° |
| 2026-05-08 07:50 | 29.71421 | 106.64470 | 1362 ft | 0 kts | 108° |
| 2026-05-08 07:51 | 29.71421 | 106.64469 | 1362 ft | 0 kts | 108° |
| 2026-05-08 07:51 | 29.71420 | 106.64472 | 1362 ft | 2 kts | 108° |
| 2026-05-08 07:51 | 29.71409 | 106.64508 | 1362 ft | 11 kts | 109° |
| 2026-05-08 07:52 | 29.71383 | 106.64601 | 1362 ft | 13 kts | 107° |
| 2026-05-08 07:52 | 29.71425 | 106.64686 | 1361 ft | 15 kts | 19° |
| 2026-05-08 07:52 | 29.71532 | 106.64725 | 1361 ft | 17 kts | 17° |
| 2026-05-08 07:52 | 29.71648 | 106.64765 | 1362 ft | 18 kts | 17° |
| 2026-05-08 07:53 | 29.71773 | 106.64809 | 1362 ft | 19 kts | 17° |
| 2026-05-08 07:53 | 29.71906 | 106.64855 | 1362 ft | 21 kts | 17° |
| 2026-05-08 07:53 | 29.72042 | 106.64903 | 1361 ft | 15 kts | 17° |
| 2026-05-08 07:53 | 29.72089 | 106.64990 | 1360 ft | 15 kts | 101° |
| 2026-05-08 07:54 | 29.72052 | 106.65038 | 1359 ft | 5 kts | 164° |
| 2026-05-08 07:54 | 29.72021 | 106.65048 | 1359 ft | 3 kts | 166° |
| 2026-05-08 07:54 | 29.72006 | 106.65051 | 1359 ft | 3 kts | 172° |
| 2026-05-08 07:54 | 29.71986 | 106.65054 | 1359 ft | 1 kts | 173° |
| 2026-05-08 07:55 | 29.71975 | 106.65056 | 1360 ft | 2 kts | 173° |
| 2026-05-08 07:55 | 29.71969 | 106.65057 | 1359 ft | 0 kts | 173° |
| 2026-05-08 07:55 | 29.71966 | 106.65057 | 1361 ft | 0 kts | 173° |
| 2026-05-08 07:59 | 29.72009 | 106.65051 | 1360 ft | 0 kts | 173° |
| 2026-05-08 08:00 | 29.71975 | 106.65056 | 1359 ft | 0 kts | 173° |